createdAt,value
2023-03-12T00:00:39.680Z,98385.94
2023-03-12T00:03:41.308Z,98394.97
2023-03-12T00:06:42.937Z,98390.41
2023-03-12T00:09:44.576Z,98384.59
2023-03-12T00:12:46.357Z,98396.03
2023-03-12T00:15:47.996Z,98406.38
2023-03-12T00:18:50.686Z,98408.47
2023-03-12T00:21:52.304Z,98411.66
2023-03-12T00:24:55.126Z,98412.50
2023-03-12T00:27:56.790Z,98415.72
2023-03-12T00:30:58.520Z,98421.47
2023-03-12T00:34:01.124Z,98421.47
2023-03-12T00:37:02.777Z,98425.88
2023-03-12T00:40:05.781Z,98431.00
2023-03-12T00:43:07.468Z,98396.75
2023-03-12T00:46:12.241Z,98425.19
2023-03-12T00:49:13.845Z,98426.13
2023-03-12T00:52:16.348Z,98422.97
2023-03-12T00:55:18.138Z,98429.47
2023-03-12T00:58:19.812Z,98430.31
2023-03-12T01:01:21.952Z,98431.28
2023-03-12T01:04:24.137Z,98432.91
2023-03-12T01:07:25.896Z,98434.28
2023-03-12T01:10:27.606Z,98434.19
2023-03-12T01:13:29.304Z,98433.97
2023-03-12T01:16:31.145Z,98442.41
2023-03-12T01:19:32.828Z,98439.44
2023-03-12T01:22:35.064Z,98448.34
2023-03-12T01:25:36.830Z,98440.72
2023-03-12T01:28:38.502Z,98446.91
2023-03-12T01:31:40.218Z,98453.59
2023-03-12T01:34:42.014Z,98462.75
2023-03-12T01:37:44.177Z,98470.13
2023-03-12T01:40:45.896Z,98473.44
2023-03-12T01:43:47.788Z,98480.34
2023-03-12T01:46:49.736Z,98473.66
2023-03-12T01:49:55.528Z,98450.00
2023-03-12T01:52:57.164Z,98455.31
2023-03-12T01:55:59.382Z,98438.72
2023-03-12T01:59:03.921Z,98447.34
2023-03-12T02:02:05.717Z,98444.44
2023-03-12T02:05:29.831Z,98442.69
2023-03-12T02:08:31.586Z,98436.78
2023-03-12T02:11:33.244Z,98453.38
2023-03-12T02:14:35.005Z,98459.41
2023-03-12T02:17:37.077Z,98461.13
2023-03-12T02:20:56.803Z,98464.50
2023-03-12T02:24:27.634Z,98467.56
2023-03-12T02:27:31.635Z,98469.66
2023-03-12T02:30:34.004Z,98462.91
2023-03-12T02:33:35.728Z,98478.72
2023-03-12T02:36:37.448Z,98479.88
2023-03-12T02:39:39.374Z,98475.81
2023-03-12T02:42:41.019Z,98486.78
2023-03-12T02:45:42.738Z,98495.72
2023-03-12T02:48:44.401Z,98495.28
2023-03-12T02:51:46.324Z,98495.59
2023-03-12T02:54:48.002Z,98501.03
2023-03-12T02:57:49.920Z,98498.28
2023-03-12T03:00:51.572Z,98504.66
2023-03-12T03:03:53.275Z,98502.84
2023-03-12T03:06:54.967Z,98502.06
2023-03-12T03:09:56.626Z,98505.28
2023-03-12T03:12:58.342Z,98511.63
2023-03-12T03:16:00.653Z,98509.59
2023-03-12T03:19:03.238Z,98517.91
2023-03-12T03:22:05.474Z,98509.88
2023-03-12T03:25:07.815Z,98514.16
2023-03-12T03:28:09.488Z,98508.97
2023-03-12T03:31:11.324Z,98517.19
2023-03-12T03:34:15.050Z,98523.69
2023-03-12T03:37:16.840Z,98523.13
2023-03-12T03:40:19.017Z,98528.75
2023-03-12T03:43:20.885Z,98530.03
2023-03-12T03:46:22.799Z,98528.75
2023-03-12T03:49:30.538Z,98535.28
2023-03-12T03:52:32.423Z,98531.47
2023-03-12T03:55:38.267Z,98530.13
2023-03-12T03:58:40.222Z,98548.56
2023-03-12T04:01:42.002Z,98550.88
2023-03-12T04:04:43.705Z,98549.63
2023-03-12T04:07:45.590Z,98537.91
2023-03-12T04:10:48.677Z,98555.06
2023-03-12T04:13:50.629Z,98544.88
2023-03-12T04:16:55.389Z,98557.31
2023-03-12T04:20:00.391Z,98565.97
2023-03-12T04:23:02.147Z,98557.75
2023-03-12T04:26:04.499Z,98560.22
2023-03-12T04:29:06.264Z,98566.31
2023-03-12T04:32:08.497Z,98570.09
2023-03-12T04:35:11.273Z,98575.72
2023-03-12T04:38:13.357Z,98570.09
2023-03-12T04:41:15.344Z,98584.84
2023-03-12T04:44:27.152Z,98580.44
2023-03-12T04:47:30.820Z,98590.66
2023-03-12T04:50:32.610Z,98547.84
2023-03-12T04:53:34.521Z,98584.56
2023-03-12T04:56:37.412Z,98590.50
2023-03-12T04:59:39.254Z,98564.72
2023-03-12T05:02:41.323Z,98594.47
2023-03-12T05:05:43.167Z,98593.28
2023-03-12T05:08:45.641Z,98598.69
2023-03-12T05:11:47.644Z,98595.97
2023-03-12T05:14:52.583Z,98597.94
2023-03-12T05:17:54.952Z,98602.34
2023-03-12T05:21:00.751Z,98607.53
2023-03-12T05:24:02.754Z,98611.69
2023-03-12T05:27:04.967Z,98615.16
2023-03-12T05:30:07.515Z,98614.38
2023-03-12T05:33:11.128Z,98609.66
2023-03-12T05:36:13.362Z,98611.63
2023-03-12T05:39:15.396Z,98617.88
2023-03-12T05:42:17.730Z,98622.16
2023-03-12T05:45:19.645Z,98632.31
2023-03-12T05:48:24.957Z,98641.75
2023-03-12T05:51:26.616Z,98635.88
2023-03-12T05:54:28.260Z,98638.91
2023-03-12T05:57:29.913Z,98637.91
2023-03-12T06:00:32.481Z,98651.91
2023-03-12T06:03:34.348Z,98653.69
2023-03-12T06:06:36.325Z,98652.72
2023-03-12T06:09:45.905Z,98656.53
2023-03-12T06:12:48.651Z,98648.78
2023-03-12T06:15:50.290Z,98652.50
2023-03-12T06:19:00.282Z,98650.19
2023-03-12T06:22:02.064Z,98625.53
2023-03-12T06:25:04.546Z,98655.44
2023-03-12T06:28:06.409Z,98649.16
2023-03-12T06:31:08.143Z,98652.28
2023-03-12T06:34:09.820Z,98633.94
2023-03-12T06:37:11.494Z,98647.34
2023-03-12T06:40:13.232Z,98650.94
2023-03-12T06:43:14.874Z,98656.38
2023-03-12T06:46:17.953Z,98664.84
2023-03-12T06:49:19.616Z,98666.13
2023-03-12T06:52:21.280Z,98654.34
2023-03-12T06:55:22.958Z,98660.69
2023-03-12T06:58:24.615Z,98658.03
2023-03-12T07:01:26.273Z,98663.69
2023-03-12T07:04:27.998Z,98653.22
2023-03-12T07:07:29.645Z,98659.78
2023-03-12T07:10:31.352Z,98661.84
2023-03-12T07:13:33.035Z,98667.03
2023-03-12T07:16:34.730Z,98657.28
2023-03-12T07:19:36.432Z,98663.47
2023-03-12T07:22:38.102Z,98666.56
2023-03-12T07:25:40.540Z,98667.91
2023-03-12T07:28:42.182Z,98659.69
2023-03-12T07:31:43.936Z,98657.00
2023-03-12T07:34:45.618Z,98665.69
2023-03-12T07:37:47.479Z,98669.88
2023-03-12T07:40:53.257Z,98672.69
2023-03-12T07:43:54.965Z,98682.00
2023-03-12T07:46:56.777Z,98677.47
2023-03-12T07:49:58.575Z,98668.50
2023-03-12T07:53:00.256Z,98682.66
2023-03-12T07:56:02.067Z,98678.84
2023-03-12T07:59:03.899Z,98681.72
2023-03-12T08:02:05.701Z,98684.84
2023-03-12T08:05:07.714Z,98685.84
2023-03-12T08:08:09.531Z,98681.91
2023-03-12T08:11:11.260Z,98686.81
2023-03-12T08:14:12.944Z,98680.44
2023-03-12T08:17:14.740Z,98673.06
2023-03-12T08:20:16.464Z,98680.16
2023-03-12T08:23:18.232Z,98672.84
2023-03-12T08:26:19.891Z,98679.66
2023-03-12T08:29:21.529Z,98678.53
2023-03-12T08:32:23.288Z,98666.13
2023-03-12T08:35:25.035Z,98680.88
2023-03-12T08:38:26.701Z,98676.19
2023-03-12T08:41:28.371Z,98678.03
2023-03-12T08:44:30.063Z,98670.97
2023-03-12T08:47:31.796Z,98667.31
2023-03-12T08:50:33.464Z,98665.91
2023-03-12T08:53:36.028Z,98651.91
2023-03-12T08:56:37.669Z,98650.06
2023-03-12T08:59:39.375Z,98656.84
2023-03-12T09:02:41.506Z,98654.22
2023-03-12T09:05:43.318Z,98653.75
2023-03-12T09:08:45.067Z,98654.00
2023-03-12T09:11:46.755Z,98666.66
2023-03-12T09:15:03.007Z,98670.84
2023-03-12T09:18:06.908Z,98658.78
2023-03-12T09:21:08.561Z,98665.72
2023-03-12T09:24:10.924Z,98659.13
2023-03-12T09:27:12.569Z,98664.16
2023-03-12T09:30:17.234Z,98661.06
2023-03-12T09:33:18.900Z,98641.31
2023-03-12T09:36:20.638Z,98662.38
2023-03-12T09:39:22.282Z,98674.97
2023-03-12T09:42:26.165Z,98669.53
2023-03-12T09:45:30.794Z,98671.94
2023-03-12T09:48:35.958Z,98669.97
2023-03-12T09:51:43.033Z,98664.97
2023-03-12T09:54:47.975Z,98661.13
2023-03-12T09:57:50.159Z,98654.97
2023-03-12T10:00:57.265Z,98653.19
2023-03-12T10:04:07.376Z,98647.84
2023-03-12T10:07:23.326Z,98648.19
2023-03-12T10:10:46.821Z,98636.50
2023-03-12T10:14:23.752Z,98643.44
2023-03-12T10:18:04.216Z,98658.00
2023-03-12T10:21:24.497Z,98653.41
2023-03-12T10:24:40.137Z,98642.78
2023-03-12T10:27:41.820Z,98646.22
2023-03-12T10:30:48.472Z,98643.25
2023-03-12T10:33:56.086Z,98632.06
2023-03-12T10:37:12.866Z,98644.91
2023-03-12T10:40:19.701Z,98639.03
2023-03-12T10:43:21.572Z,98642.34
2023-03-12T10:47:08.364Z,98635.56
2023-03-12T10:50:18.732Z,98624.31
2023-03-12T10:53:29.659Z,98618.13
2023-03-12T10:56:31.607Z,98606.28
2023-03-12T10:59:38.112Z,98599.94
2023-03-12T11:02:56.627Z,98608.19
2023-03-12T11:06:02.175Z,98595.81
2023-03-12T11:09:17.073Z,98593.06
2023-03-12T11:12:24.839Z,98592.69
2023-03-12T11:15:30.366Z,98589.31
2023-03-12T11:18:36.238Z,98572.41
2023-03-12T11:21:40.995Z,98580.25
2023-03-12T11:25:00.153Z,98569.16
2023-03-12T11:28:01.883Z,98565.19
2023-03-12T11:31:03.838Z,98558.25
2023-03-12T11:34:07.270Z,98549.31
2023-03-12T11:37:21.016Z,98542.28
2023-03-12T11:40:53.360Z,98540.31
2023-03-12T11:44:07.693Z,98530.88
2023-03-12T11:47:37.069Z,98516.34
2023-03-12T11:51:03.698Z,98510.38
2023-03-12T11:54:37.453Z,98514.75
2023-03-12T11:57:56.137Z,98508.22
2023-03-12T12:01:11.760Z,98510.88
2023-03-12T12:04:35.404Z,98496.78
2023-03-12T12:08:21.532Z,98497.13
2023-03-12T12:11:35.671Z,98491.03
2023-03-12T12:14:37.251Z,98498.00
2023-03-12T12:18:08.154Z,98487.81
2023-03-12T12:21:12.504Z,98494.41
2023-03-12T12:24:24.355Z,98480.53
2023-03-12T12:27:29.788Z,98483.03
2023-03-12T12:30:53.065Z,98471.72
2023-03-12T12:34:17.458Z,98493.66
2023-03-12T12:37:44.200Z,98472.41
2023-03-12T12:40:55.992Z,98484.47
2023-03-12T12:44:11.263Z,98476.63
2023-03-12T12:47:14.088Z,98477.16
2023-03-12T12:50:21.532Z,98469.59
2023-03-12T12:53:36.461Z,98473.59
2023-03-12T12:56:46.025Z,98452.63
2023-03-12T13:00:01.943Z,98453.13
2023-03-12T13:03:03.808Z,98440.97
2023-03-12T13:06:06.377Z,98440.34
2023-03-12T13:09:16.840Z,98432.97
2023-03-12T13:12:57.145Z,98428.88
2023-03-12T13:16:23.739Z,98427.25
2023-03-12T13:19:26.488Z,98443.28
2023-03-12T13:22:28.177Z,98453.84
2023-03-12T13:25:41.882Z,98485.44
2023-03-12T13:28:56.862Z,98458.81
2023-03-12T13:31:58.832Z,98456.44
2023-03-12T13:35:06.612Z,98454.97
2023-03-12T13:38:12.417Z,98456.13
2023-03-12T13:41:14.278Z,98466.31
2023-03-12T13:44:29.355Z,98478.72
2023-03-12T13:47:32.045Z,98473.13
2023-03-12T13:50:41.962Z,98480.97
2023-03-12T13:53:47.430Z,98489.56
2023-03-12T13:56:57.872Z,98507.53
2023-03-12T14:00:00.002Z,98513.22
2023-03-12T14:03:09.619Z,98516.56
2023-03-12T14:06:13.528Z,98511.66
2023-03-12T14:09:15.616Z,98513.16
2023-03-12T14:12:39.198Z,98515.81
2023-03-12T14:15:46.828Z,98510.84
2023-03-12T14:18:48.948Z,98494.75
2023-03-12T14:21:51.136Z,98517.59
2023-03-12T14:24:57.766Z,98516.44
2023-03-12T14:28:00.189Z,98507.91
2023-03-12T14:31:17.077Z,98525.47
2023-03-12T14:34:26.109Z,98519.19
2023-03-12T14:37:40.334Z,98523.69
2023-03-12T14:40:55.459Z,98518.06
2023-03-12T14:44:05.176Z,98522.94
2023-03-12T14:47:08.703Z,98525.56
2023-03-12T14:50:21.774Z,98521.41
2023-03-12T14:53:27.241Z,98510.88
2023-03-12T14:56:32.706Z,98514.28
2023-03-12T14:59:34.987Z,98532.66
2023-03-12T15:02:38.439Z,98535.72
2023-03-12T15:05:47.998Z,98535.69
2023-03-12T15:08:50.003Z,98544.69
2023-03-12T15:12:07.948Z,98532.31
2023-03-12T15:15:12.032Z,98526.34
2023-03-12T15:18:28.470Z,98523.25
2023-03-12T15:21:35.127Z,98536.38
2023-03-12T15:24:40.160Z,98534.53
2023-03-12T15:27:41.841Z,98522.16
2023-03-12T15:30:44.263Z,98534.91
2023-03-12T15:33:59.015Z,98515.06
2023-03-12T15:37:02.000Z,98515.00
2023-03-12T15:40:17.429Z,98512.78
2023-03-12T15:43:20.906Z,98512.78
2023-03-12T15:46:24.093Z,98522.53
2023-03-12T15:49:28.663Z,98519.16
2023-03-12T15:52:35.016Z,98525.13
2023-03-12T15:55:37.396Z,98510.53
2023-03-12T15:58:40.807Z,98499.31
2023-03-12T16:01:53.032Z,98524.41
2023-03-12T16:04:54.949Z,98519.22
2023-03-12T16:07:57.592Z,98512.81
2023-03-12T16:11:00.055Z,98510.56
2023-03-12T16:14:03.663Z,98504.19
2023-03-12T16:17:11.548Z,98513.56
2023-03-12T16:20:15.029Z,98510.56
2023-03-12T16:23:17.315Z,98512.06
2023-03-12T16:26:20.588Z,98522.91
2023-03-12T16:29:23.137Z,98522.16
2023-03-12T16:32:26.141Z,98521.03
2023-03-12T16:35:28.634Z,98528.50
2023-03-12T16:38:32.388Z,98531.53
2023-03-12T16:41:36.921Z,98539.78
2023-03-12T16:44:38.990Z,98536.00
2023-03-12T16:47:41.621Z,98548.75
2023-03-12T16:50:48.636Z,98534.50
2023-03-12T16:54:06.776Z,98543.50
2023-03-12T16:57:16.984Z,98557.75
2023-03-12T17:00:23.186Z,98536.44
2023-03-12T17:03:36.831Z,98550.28
2023-03-12T17:06:39.905Z,98555.50
2023-03-12T17:09:42.332Z,98555.16
2023-03-12T17:12:46.437Z,98521.06
2023-03-12T17:15:50.919Z,98552.09
2023-03-12T17:18:53.248Z,98554.75
2023-03-12T17:21:55.134Z,98560.38
2023-03-12T17:24:58.162Z,98556.63
2023-03-12T17:28:00.854Z,98567.53
2023-03-12T17:31:03.008Z,98568.56
2023-03-12T17:34:05.608Z,98569.31
2023-03-12T17:37:08.012Z,98556.25
2023-03-12T17:40:12.789Z,98562.59
2023-03-12T17:43:15.289Z,98564.50
2023-03-12T17:46:17.829Z,98565.63
2023-03-12T17:49:20.223Z,98563.38
2023-03-12T17:52:23.152Z,98572.31
2023-03-12T17:55:25.971Z,98550.59
2023-03-12T17:58:28.577Z,98561.50
2023-03-12T18:01:31.468Z,98564.88
2023-03-12T18:04:34.288Z,98561.13
2023-03-12T18:07:37.054Z,98561.09
2023-03-12T18:10:39.790Z,98561.88
2023-03-12T18:13:42.087Z,98569.41
2023-03-12T18:16:44.718Z,98554.81
2023-03-12T18:19:47.156Z,98546.94
2023-03-12T18:22:49.735Z,98561.13
2023-03-12T18:25:52.435Z,98552.84
2023-03-12T18:28:55.084Z,98558.34
2023-03-12T18:31:57.690Z,98559.19
2023-03-12T18:34:59.880Z,98553.50
2023-03-12T18:38:03.767Z,98552.00
2023-03-12T18:41:07.291Z,98564.44
2023-03-12T18:44:10.588Z,98579.09
2023-03-12T18:47:13.687Z,98573.84
2023-03-12T18:50:18.753Z,98576.44
2023-03-12T18:53:22.877Z,98582.03
2023-03-12T18:56:26.056Z,98574.19
2023-03-12T18:59:32.209Z,98581.59
2023-03-12T19:02:34.922Z,98580.47
2023-03-12T19:05:37.317Z,98600.97
2023-03-12T19:08:40.031Z,98593.94
2023-03-12T19:11:42.670Z,98570.31
2023-03-12T19:14:45.751Z,98580.09
2023-03-12T19:17:48.561Z,98576.31
2023-03-12T19:20:51.087Z,98583.06
2023-03-12T19:23:53.965Z,98586.72
2023-03-12T19:26:56.772Z,98591.19
2023-03-12T19:29:59.511Z,98599.47
2023-03-12T19:33:03.380Z,98592.06
2023-03-12T19:36:05.835Z,98602.59
2023-03-12T19:39:20.552Z,98584.59
2023-03-12T19:42:24.175Z,98593.66
2023-03-12T19:45:27.094Z,98604.16
2023-03-12T19:48:32.746Z,98595.56
2023-03-12T19:51:40.408Z,98602.94
2023-03-12T19:54:49.093Z,98650.50
2023-03-12T19:57:57.656Z,98633.75
2023-03-12T20:01:02.958Z,98633.38
2023-03-12T20:04:07.041Z,98634.50
2023-03-12T20:07:09.677Z,98661.47
2023-03-12T20:10:12.726Z,98640.16
2023-03-12T20:13:15.541Z,98670.47
2023-03-12T20:16:19.419Z,98643.09
2023-03-12T20:19:22.350Z,98670.06
2023-03-12T20:22:27.797Z,98653.22
2023-03-12T20:25:31.219Z,98625.00
2023-03-12T20:28:33.976Z,98657.31
2023-03-12T20:31:37.135Z,98668.22
2023-03-12T20:34:39.716Z,98666.19
2023-03-12T20:37:42.163Z,98664.25
2023-03-12T20:40:48.267Z,98663.06
2023-03-12T20:43:55.994Z,98677.44
2023-03-12T20:46:59.350Z,98677.72
2023-03-12T20:50:01.759Z,98686.13
2023-03-12T20:53:04.395Z,98684.50
2023-03-12T20:56:07.214Z,98685.91
2023-03-12T20:59:13.561Z,98678.75
2023-03-12T21:02:16.325Z,98676.44
2023-03-12T21:05:19.010Z,98681.66
2023-03-12T21:08:21.065Z,98696.31
2023-03-12T21:11:23.600Z,98689.13
2023-03-12T21:14:27.066Z,98702.69
2023-03-12T21:17:31.039Z,98704.44
2023-03-12T21:20:34.579Z,98705.50
2023-03-12T21:23:37.094Z,98705.47
2023-03-12T21:26:39.176Z,98693.47
2023-03-12T21:29:40.948Z,98695.44
2023-03-12T21:32:42.617Z,98701.59
2023-03-12T21:35:45.170Z,98709.91
2023-03-12T21:38:47.012Z,98703.69
2023-03-12T21:41:49.010Z,98699.69
2023-03-12T21:44:51.006Z,98687.41
2023-03-12T21:47:52.772Z,98684.91
2023-03-12T21:50:54.576Z,98683.78
2023-03-12T21:53:56.728Z,98699.59
2023-03-12T21:57:00.944Z,98707.19
2023-03-12T22:00:04.159Z,98708.84
2023-03-12T22:03:05.944Z,98710.38
2023-03-12T22:06:07.808Z,98710.72
2023-03-12T22:09:09.476Z,98712.50
2023-03-12T22:12:11.125Z,98721.69
2023-03-12T22:15:12.772Z,98730.06
2023-03-12T22:18:14.416Z,98727.53
2023-03-12T22:21:20.554Z,98728.19
2023-03-12T22:24:22.165Z,98719.22
2023-03-12T22:27:23.830Z,98719.03
2023-03-12T22:30:25.670Z,98717.34
2023-03-12T22:33:27.592Z,98717.00
2023-03-12T22:36:29.368Z,98716.63
2023-03-12T22:39:30.996Z,98718.50
2023-03-12T22:42:33.357Z,98712.97
2023-03-12T22:45:35.075Z,98715.59
2023-03-12T22:48:36.760Z,98716.34
2023-03-12T22:51:38.452Z,98721.84
2023-03-12T22:54:40.099Z,98730.47
2023-03-12T22:57:41.768Z,98733.84
2023-03-12T23:00:43.412Z,98727.50
2023-03-12T23:03:45.320Z,98736.47
2023-03-12T23:06:46.940Z,98744.50
2023-03-12T23:09:48.600Z,98731.31
2023-03-12T23:12:50.251Z,98747.03
2023-03-12T23:15:52.034Z,98737.66
2023-03-12T23:18:53.811Z,98728.66
2023-03-12T23:21:55.450Z,98721.22
2023-03-12T23:24:57.106Z,98737.44
2023-03-12T23:27:58.745Z,98737.50
2023-03-12T23:31:01.299Z,98722.16
2023-03-12T23:34:02.992Z,98738.31
2023-03-12T23:37:04.840Z,98732.38
2023-03-12T23:40:07.320Z,98724.19
2023-03-12T23:43:11.517Z,98726.84
2023-03-12T23:46:13.464Z,98726.09
2023-03-12T23:49:15.180Z,98722.03
2023-03-12T23:52:19.665Z,98715.63
2023-03-12T23:55:21.331Z,98711.88
2023-03-12T23:58:23.880Z,98712.97
